createdAt,value
2019-01-12T00:02:22.369Z,98301.42
2019-01-12T00:04:54.799Z,98307.43
2019-01-12T00:07:27.175Z,98306.67
2019-01-12T00:09:59.377Z,98305.64
2019-01-12T00:12:31.637Z,98305.11
2019-01-12T00:15:04.230Z,98308.07
2019-01-12T00:17:36.388Z,98308.22
2019-01-12T00:20:08.907Z,98313.83
2019-01-12T00:22:41.065Z,98310.50
2019-01-12T00:25:13.578Z,98310.47
2019-01-12T00:27:45.949Z,98310.61
2019-01-12T00:30:18.463Z,98305.83
2019-01-12T00:32:50.824Z,98315.53
2019-01-12T00:35:23.129Z,98318.53
2019-01-12T00:37:55.390Z,98319.69
2019-01-12T00:40:27.810Z,98318.53
2019-01-12T00:42:59.987Z,98316.51
2019-01-12T00:45:32.594Z,98320.80
2019-01-12T00:48:04.957Z,98320.09
2019-01-12T00:50:37.421Z,98324.08
2019-01-12T00:53:09.794Z,98326.30
2019-01-12T00:55:42.104Z,98322.44
2019-01-12T00:58:14.267Z,98321.16
2019-01-12T01:00:46.598Z,98320.77
2019-01-12T01:03:19.121Z,98329.84
2019-01-12T01:05:51.544Z,98329.06
2019-01-12T01:08:23.924Z,98331.01
2019-01-12T01:10:56.433Z,98328.47
2019-01-12T01:13:28.769Z,98330.16
2019-01-12T01:16:01.086Z,98329.84
2019-01-12T01:18:33.546Z,98329.11
2019-01-12T01:21:06.067Z,98332.84
2019-01-12T01:23:38.325Z,98331.33
2019-01-12T01:26:10.831Z,98338.93
2019-01-12T01:28:43.101Z,98339.72
2019-01-12T01:31:15.310Z,98350.14
2019-01-12T01:33:47.770Z,98346.45
2019-01-12T01:36:20.094Z,98349.84
2019-01-12T01:38:52.471Z,98348.28
2019-01-12T01:41:24.775Z,98347.42
2019-01-12T01:43:57.241Z,98349.80
2019-01-12T01:46:29.551Z,98347.20
2019-01-12T01:49:01.723Z,98351.02
2019-01-12T01:51:34.083Z,98347.82
2019-01-12T01:54:06.598Z,98351.61
2019-01-12T01:56:39.043Z,98355.56
2019-01-12T01:59:11.210Z,98351.86
2019-01-12T02:01:43.536Z,98359.41
2019-01-12T02:04:15.886Z,98351.45
2019-01-12T02:06:48.190Z,98357.30
2019-01-12T02:09:20.365Z,98355.45
2019-01-12T02:11:52.953Z,98345.00
2019-01-12T02:14:25.215Z,98346.37
2019-01-12T02:16:57.530Z,98349.08
2019-01-12T02:19:29.794Z,98349.52
2019-01-12T02:22:02.101Z,98348.03
2019-01-12T02:24:34.464Z,98350.94
2019-01-12T02:27:06.885Z,98344.59
2019-01-12T02:29:39.045Z,98340.84
2019-01-12T02:32:11.362Z,98340.05
2019-01-12T02:34:43.633Z,98339.88
2019-01-12T02:37:15.954Z,98344.19
2019-01-12T02:39:48.324Z,98343.70
2019-01-12T02:42:20.646Z,98336.91
2019-01-12T02:44:52.868Z,98335.79
2019-01-12T02:47:25.313Z,98336.83
2019-01-12T02:49:57.579Z,98339.13
2019-01-12T02:52:29.993Z,98341.23
2019-01-12T02:55:08.570Z,98340.64
2019-01-12T02:57:36.221Z,98340.62
2019-01-12T03:00:12.655Z,98340.84
2019-01-12T03:02:45.065Z,98338.15
2019-01-12T03:05:17.632Z,98339.28
2019-01-12T03:07:50.130Z,98340.12
2019-01-12T03:10:22.509Z,98343.97
2019-01-12T03:12:55.027Z,98339.17
2019-01-12T03:15:27.194Z,98336.66
2019-01-12T03:17:59.606Z,98335.44
2019-01-12T03:20:31.885Z,98330.47
2019-01-12T03:23:04.206Z,98325.48
2019-01-12T03:25:36.662Z,98316.59
2019-01-12T03:28:08.979Z,98325.80
2019-01-12T03:30:41.147Z,98321.50
2019-01-12T03:33:13.371Z,98324.30
2019-01-12T03:35:45.588Z,98328.84
2019-01-12T03:38:17.937Z,98323.06
2019-01-12T03:40:50.112Z,98320.05
2019-01-12T03:43:22.628Z,98329.68
2019-01-12T03:45:54.991Z,98329.00
2019-01-12T03:48:27.425Z,98325.14
2019-01-12T03:50:59.777Z,98321.42
2019-01-12T03:53:32.031Z,98315.88
2019-01-12T03:56:04.488Z,98309.13
2019-01-12T03:58:36.815Z,98308.45
2019-01-12T04:01:09.248Z,98303.89
2019-01-12T04:03:41.456Z,98307.26
2019-01-12T04:06:13.781Z,98299.31
2019-01-12T04:08:46.052Z,98305.61
2019-01-12T04:11:18.218Z,98311.36
2019-01-12T04:13:50.437Z,98305.09
2019-01-12T04:16:22.598Z,98310.16
2019-01-12T04:18:54.907Z,98307.98
2019-01-12T04:21:27.075Z,98309.14
2019-01-12T04:23:59.488Z,98305.65
2019-01-12T04:26:31.649Z,98312.12
2019-01-12T04:29:03.966Z,98307.91
2019-01-12T04:31:36.229Z,98311.34
2019-01-12T04:34:08.439Z,98313.00
2019-01-12T04:36:40.591Z,98314.30
2019-01-12T04:39:13.008Z,98317.83
2019-01-12T04:41:45.274Z,98318.47
2019-01-12T04:44:17.590Z,98315.00
2019-01-12T04:46:49.851Z,98311.34
2019-01-12T04:49:22.167Z,98313.94
2019-01-12T04:51:54.490Z,98310.25
2019-01-12T04:54:26.700Z,98306.56
2019-01-12T04:56:58.871Z,98306.09
2019-01-12T04:59:31.064Z,98305.12
2019-01-12T05:02:03.334Z,98309.76
2019-01-12T05:04:35.635Z,98313.59
2019-01-12T05:07:07.994Z,98312.24
2019-01-12T05:09:40.199Z,98310.05
2019-01-12T05:12:12.366Z,98307.83
2019-01-12T05:14:44.693Z,98307.20
2019-01-12T05:17:16.971Z,98303.96
2019-01-12T05:19:49.279Z,98299.61
2019-01-12T05:22:21.551Z,98294.88
2019-01-12T05:24:53.867Z,98298.10
2019-01-12T05:27:26.037Z,98291.46
2019-01-12T05:29:58.239Z,98293.52
2019-01-12T05:32:30.409Z,98297.30
2019-01-12T05:35:02.730Z,98295.25
2019-01-12T05:37:35.101Z,98296.88
2019-01-12T05:40:08.304Z,98296.83
2019-01-12T05:42:40.687Z,98304.41
2019-01-12T05:45:13.694Z,98300.45
2019-01-12T05:47:46.158Z,98300.21
2019-01-12T05:50:18.675Z,98313.23
2019-01-12T05:52:50.878Z,98307.53
2019-01-12T05:55:23.199Z,98313.62
2019-01-12T05:57:55.356Z,98316.03
2019-01-12T06:00:27.556Z,98314.86
2019-01-12T06:02:59.821Z,98306.39
2019-01-12T06:05:32.124Z,98315.73
2019-01-12T06:08:04.392Z,98316.20
2019-01-12T06:10:36.597Z,98320.00
2019-01-12T06:13:08.958Z,98316.72
2019-01-12T06:15:41.380Z,98315.45
2019-01-12T06:18:13.744Z,98327.91
2019-01-12T06:20:45.952Z,98325.42
2019-01-12T06:23:18.208Z,98320.91
2019-01-12T06:25:50.409Z,98316.80
2019-01-12T06:28:22.578Z,98318.11
2019-01-12T06:30:54.896Z,98314.92
2019-01-12T06:33:27.052Z,98315.17
2019-01-12T06:35:59.366Z,98322.24
2019-01-12T06:38:31.548Z,98318.67
2019-01-12T06:41:03.962Z,98315.41
2019-01-12T06:43:36.124Z,98313.98
2019-01-12T06:46:08.427Z,98314.97
2019-01-12T06:48:40.591Z,98313.98
2019-01-12T06:51:12.894Z,98314.06
2019-01-12T06:53:45.105Z,98319.46
2019-01-12T06:56:17.300Z,98322.86
2019-01-12T06:58:49.464Z,98327.05
2019-01-12T07:01:21.669Z,98319.70
2019-01-12T07:03:54.287Z,98323.43
2019-01-12T07:06:26.583Z,98323.38
2019-01-12T07:08:58.746Z,98324.94
2019-01-12T07:11:31.044Z,98335.25
2019-01-12T07:14:03.298Z,98330.47
2019-01-12T07:16:35.608Z,98332.71
2019-01-12T07:19:07.973Z,98334.85
2019-01-12T07:21:40.180Z,98342.99
2019-01-12T07:24:12.340Z,98337.91
2019-01-12T07:26:44.549Z,98343.78
2019-01-12T07:29:16.712Z,98356.31
2019-01-12T07:31:48.916Z,98357.52
2019-01-12T07:34:21.176Z,98353.91
2019-01-12T07:36:53.492Z,98356.61
2019-01-12T07:39:25.641Z,98356.41
2019-01-12T07:41:57.839Z,98357.05
2019-01-12T07:44:30.100Z,98361.54
2019-01-12T07:47:02.405Z,98367.86
2019-01-12T07:49:34.667Z,98358.84
2019-01-12T07:52:07.375Z,98356.18
2019-01-12T07:54:39.592Z,98358.00
2019-01-12T07:57:11.896Z,98350.31
2019-01-12T07:59:44.153Z,98354.17
2019-01-12T08:02:16.589Z,98354.73
2019-01-12T08:04:48.890Z,98351.55
2019-01-12T08:07:21.198Z,98355.83
2019-01-12T08:09:53.808Z,98355.97
2019-01-12T08:12:26.308Z,98355.81
2019-01-12T08:14:58.475Z,98359.07
2019-01-12T08:17:30.681Z,98352.98
2019-01-12T08:20:02.952Z,98355.60
2019-01-12T08:22:35.367Z,98354.73
2019-01-12T08:25:08.963Z,98359.45
2019-01-12T08:27:41.593Z,98358.64
2019-01-12T08:30:17.651Z,98357.89
2019-01-12T08:32:49.995Z,98351.70
2019-01-12T08:35:22.257Z,98352.83
2019-01-12T08:37:54.666Z,98349.75
2019-01-12T08:40:26.938Z,98348.92
2019-01-12T08:42:59.151Z,98350.45
2019-01-12T08:45:31.520Z,98351.34
2019-01-12T08:48:03.826Z,98347.34
2019-01-12T08:50:36.097Z,98348.41
2019-01-12T08:53:08.551Z,98343.77
2019-01-12T08:55:40.811Z,98339.78
2019-01-12T08:58:13.222Z,98337.89
2019-01-12T09:00:45.385Z,98344.88
2019-01-12T09:03:17.595Z,98348.72
2019-01-12T09:05:49.949Z,98351.00
2019-01-12T09:08:22.247Z,98345.41
2019-01-12T09:10:54.609Z,98352.47
2019-01-12T09:13:27.022Z,98341.82
2019-01-12T09:15:59.188Z,98340.37
2019-01-12T09:18:31.594Z,98340.80
2019-01-12T09:21:03.797Z,98339.47
2019-01-12T09:23:36.108Z,98343.80
2019-01-12T09:26:08.491Z,98337.45
2019-01-12T09:28:41.004Z,98341.52
2019-01-12T09:31:13.512Z,98341.90
2019-01-12T09:33:45.856Z,98333.78
2019-01-12T09:36:18.243Z,98334.43
2019-01-12T09:38:50.640Z,98336.68
2019-01-12T09:41:22.993Z,98337.83
2019-01-12T09:43:55.408Z,98329.33
2019-01-12T09:46:27.672Z,98330.59
2019-01-12T09:48:59.987Z,98329.19
2019-01-12T09:51:32.294Z,98328.64
2019-01-12T09:54:04.807Z,98326.73
2019-01-12T09:56:37.075Z,98322.84
2019-01-12T09:59:09.293Z,98324.22
2019-01-12T10:01:41.450Z,98322.14
2019-01-12T10:04:13.851Z,98315.23
2019-01-12T10:06:46.108Z,98314.29
2019-01-12T10:09:18.324Z,98305.97
2019-01-12T10:11:50.485Z,98297.03
2019-01-12T10:14:22.894Z,98296.61
2019-01-12T10:16:55.042Z,98291.77
2019-01-12T10:19:27.247Z,98285.37
2019-01-12T10:21:59.513Z,98286.30
2019-01-12T10:24:31.714Z,98281.28
2019-01-12T10:27:03.874Z,98270.53
2019-01-12T10:29:36.190Z,98275.30
2019-01-12T10:32:08.555Z,98266.25
2019-01-12T10:34:40.961Z,98255.47
2019-01-12T10:37:13.331Z,98260.72
2019-01-12T10:39:45.739Z,98251.92
2019-01-12T10:42:18.000Z,98253.09
2019-01-12T10:44:50.313Z,98244.22
2019-01-12T10:47:22.786Z,98241.28
2019-01-12T10:49:55.099Z,98236.30
2019-01-12T10:52:27.407Z,98229.73
2019-01-12T10:54:59.719Z,98232.30
2019-01-12T10:57:31.985Z,98224.96
2019-01-12T11:00:06.077Z,98218.83
2019-01-12T11:02:38.239Z,98216.61
2019-01-12T11:05:11.186Z,98215.38
2019-01-12T11:07:43.554Z,98214.15
2019-01-12T11:10:16.671Z,98212.19
2019-01-12T11:12:49.028Z,98207.98
2019-01-12T11:15:22.244Z,98207.33
2019-01-12T11:17:54.491Z,98199.21
2019-01-12T11:20:26.995Z,98201.52
2019-01-12T11:22:59.561Z,98195.78
2019-01-12T11:25:31.956Z,98191.91
2019-01-12T11:28:04.698Z,98194.67
2019-01-12T11:30:36.999Z,98185.17
2019-01-12T11:33:09.359Z,98188.36
2019-01-12T11:35:41.865Z,98196.15
2019-01-12T11:38:14.128Z,98199.20
2019-01-12T11:40:46.640Z,98196.10
2019-01-12T11:43:18.793Z,98187.35
2019-01-12T11:45:51.105Z,98193.28
2019-01-12T11:48:23.515Z,98181.15
2019-01-12T11:51:05.770Z,98181.41
2019-01-12T11:53:37.927Z,98174.39
2019-01-12T11:56:10.644Z,98164.73
2019-01-12T11:58:42.811Z,98158.94
2019-01-12T12:01:15.326Z,98147.83
2019-01-12T12:03:47.685Z,98150.60
2019-01-12T12:06:20.092Z,98144.06
2019-01-12T12:08:52.455Z,98139.91
2019-01-12T12:11:24.675Z,98132.13
2019-01-12T12:13:56.852Z,98128.72
2019-01-12T12:16:29.152Z,98123.05
2019-01-12T12:19:01.453Z,98120.73
2019-01-12T12:21:33.693Z,98109.46
2019-01-12T12:24:06.441Z,98105.41
2019-01-12T12:26:38.742Z,98099.65
2019-01-12T12:29:11.013Z,98099.94
2019-01-12T12:31:43.219Z,98114.24
2019-01-12T12:34:15.662Z,98105.42
2019-01-12T12:36:49.487Z,98115.98
2019-01-12T12:39:21.824Z,98106.77
2019-01-12T12:41:54.144Z,98109.09
2019-01-12T12:44:26.424Z,98107.09
2019-01-12T12:46:58.732Z,98097.72
2019-01-12T12:49:31.038Z,98098.89
2019-01-12T12:52:03.493Z,98088.84
2019-01-12T12:54:36.043Z,98093.66
2019-01-12T12:57:08.561Z,98096.48
2019-01-12T12:59:40.923Z,98090.73
2019-01-12T13:02:13.340Z,98087.41
2019-01-12T13:04:45.497Z,98080.21
2019-01-12T13:07:17.901Z,98082.03
2019-01-12T13:09:50.059Z,98075.09
2019-01-12T13:12:22.524Z,98076.70
2019-01-12T13:14:54.842Z,98067.16
2019-01-12T13:17:27.165Z,98065.98
2019-01-12T13:19:59.328Z,98057.14
2019-01-12T13:22:31.546Z,98053.64
2019-01-12T13:25:04.015Z,98055.81
2019-01-12T13:27:39.913Z,98052.92
2019-01-12T13:30:26.349Z,98051.39
2019-01-12T13:32:58.985Z,98048.47
2019-01-12T13:35:31.456Z,98043.36
2019-01-12T13:38:03.870Z,98035.09
2019-01-12T13:40:36.136Z,98023.75
2019-01-12T13:43:08.457Z,98028.97
2019-01-12T13:45:40.727Z,98024.36
2019-01-12T13:48:13.061Z,98024.94
2019-01-12T13:50:45.332Z,98021.16
2019-01-12T13:53:17.639Z,98017.97
2019-01-12T13:55:49.953Z,98011.86
2019-01-12T13:58:22.274Z,98006.45
2019-01-12T14:00:54.750Z,98002.80
2019-01-12T14:03:27.070Z,97992.70
2019-01-12T14:05:59.434Z,97986.97
2019-01-12T14:08:31.647Z,97980.80
2019-01-12T14:11:03.814Z,97976.30
2019-01-12T14:13:36.027Z,97967.80
2019-01-12T14:16:08.502Z,97964.88
2019-01-12T14:18:40.711Z,97965.96
2019-01-12T14:21:13.183Z,97957.72
2019-01-12T14:23:45.602Z,97964.45
2019-01-12T14:26:17.865Z,97959.76
2019-01-12T14:28:50.180Z,97956.09
2019-01-12T14:31:22.554Z,97951.56
2019-01-12T14:33:54.997Z,97949.34
2019-01-12T14:36:27.188Z,97946.53
2019-01-12T14:38:59.395Z,97953.06
2019-01-12T14:41:31.772Z,97952.72
2019-01-12T14:44:04.219Z,97942.25
2019-01-12T14:46:36.593Z,97950.03
2019-01-12T14:49:09.044Z,97946.36
2019-01-12T14:51:41.427Z,97948.92
2019-01-12T14:54:13.744Z,97938.77
2019-01-12T14:56:46.011Z,97944.22
2019-01-12T14:59:18.234Z,97930.62
2019-01-12T15:01:50.568Z,97924.73
2019-01-12T15:04:22.769Z,97925.05
2019-01-12T15:06:55.247Z,97917.54
2019-01-12T15:09:27.477Z,97920.00
2019-01-12T15:11:59.779Z,97918.71
2019-01-12T15:14:32.154Z,97923.87
2019-01-12T15:17:04.353Z,97913.30
2019-01-12T15:19:36.775Z,97903.52
2019-01-12T15:22:09.043Z,97900.66
2019-01-12T15:24:41.458Z,97899.80
2019-01-12T15:27:13.921Z,97891.69
2019-01-12T15:29:46.124Z,97896.22
2019-01-12T15:32:18.492Z,97885.39
2019-01-12T15:34:50.699Z,97885.02
2019-01-12T15:37:22.967Z,97874.69
2019-01-12T15:39:55.385Z,97871.39
2019-01-12T15:42:27.646Z,97862.20
2019-01-12T15:44:59.872Z,97856.64
2019-01-12T15:47:32.145Z,97858.30
2019-01-12T15:50:05.149Z,97850.09
2019-01-12T15:52:37.578Z,97848.05
2019-01-12T15:55:10.062Z,97843.36
2019-01-12T15:57:42.353Z,97838.00
2019-01-12T16:00:18.759Z,97837.05
2019-01-12T16:02:51.059Z,97818.88
2019-01-12T16:05:23.627Z,97811.64
2019-01-12T16:07:56.244Z,97816.80
2019-01-12T16:10:28.723Z,97824.13
2019-01-12T16:13:01.006Z,97816.69
2019-01-12T16:15:33.439Z,97813.52
2019-01-12T16:18:06.041Z,97815.90
2019-01-12T16:20:43.008Z,97805.27
2019-01-12T16:23:16.057Z,97794.43
2019-01-12T16:25:48.519Z,97788.67
2019-01-12T16:28:23.377Z,97794.91
2019-01-12T16:30:55.089Z,97792.77
2019-01-12T16:33:27.623Z,97785.70
2019-01-12T16:35:59.848Z,97791.09
2019-01-12T16:38:32.117Z,97787.05
2019-01-12T16:41:04.533Z,97778.48
2019-01-12T16:43:36.902Z,97775.52
2019-01-12T16:46:09.178Z,97772.50
2019-01-12T16:48:41.345Z,97774.48
2019-01-12T16:51:13.763Z,97777.59
2019-01-12T16:53:45.925Z,97774.10
2019-01-12T16:56:18.344Z,97770.89
2019-01-12T16:58:50.603Z,97770.61
2019-01-12T17:01:22.946Z,97769.55
2019-01-12T17:03:55.267Z,97769.31
2019-01-12T17:06:27.601Z,97770.32
2019-01-12T17:08:59.770Z,97761.22
2019-01-12T17:11:32.083Z,97759.95
2019-01-12T17:14:04.345Z,97764.53
2019-01-12T17:16:36.556Z,97757.13
2019-01-12T17:19:09.031Z,97748.30
2019-01-12T17:21:41.259Z,97741.84
2019-01-12T17:24:13.521Z,97736.08
2019-01-12T17:26:45.733Z,97738.40
2019-01-12T17:29:18.135Z,97730.77
2019-01-12T17:31:50.497Z,97718.75
2019-01-12T17:34:22.764Z,97720.01
2019-01-12T17:36:58.803Z,97713.47
2019-01-12T17:39:28.944Z,97707.28
2019-01-12T17:42:01.257Z,97703.53
2019-01-12T17:44:33.512Z,97700.89
2019-01-12T17:47:06.021Z,97701.08
2019-01-12T17:49:38.388Z,97689.47
2019-01-12T17:52:10.858Z,97688.19
2019-01-12T17:54:43.125Z,97676.14
2019-01-12T17:57:15.541Z,97672.25
2019-01-12T17:59:47.805Z,97661.13
2019-01-12T18:02:20.112Z,97665.23
2019-01-12T18:04:52.471Z,97661.98
2019-01-12T18:07:24.966Z,97667.00
2019-01-12T18:09:57.216Z,97667.22
2019-01-12T18:12:29.531Z,97657.92
2019-01-12T18:15:01.697Z,97646.99
2019-01-12T18:17:34.018Z,97656.02
2019-01-12T18:20:07.841Z,97647.22
2019-01-12T18:22:40.162Z,97651.80
2019-01-12T18:25:13.518Z,97658.50
2019-01-12T18:27:45.937Z,97638.69
2019-01-12T18:30:20.799Z,97632.04
2019-01-12T18:32:53.118Z,97633.05
2019-01-12T18:35:25.590Z,97627.64
2019-01-12T18:37:58.113Z,97624.55
2019-01-12T18:40:30.280Z,97625.92
2019-01-12T18:43:02.488Z,97611.23
2019-01-12T18:45:34.860Z,97622.59
2019-01-12T18:48:07.674Z,97618.98
2019-01-12T18:50:39.983Z,97624.81
2019-01-12T18:53:12.495Z,97613.52
2019-01-12T18:55:44.964Z,97624.33
2019-01-12T18:58:17.173Z,97623.67
2019-01-12T19:00:49.530Z,97611.89
2019-01-12T19:03:21.740Z,97605.53
2019-01-12T19:05:53.896Z,97598.57
2019-01-12T19:08:26.109Z,97598.11
2019-01-12T19:10:58.376Z,97592.55
2019-01-12T19:13:31.660Z,97588.64
2019-01-12T19:16:03.942Z,97587.52
2019-01-12T19:18:36.156Z,97583.02
2019-01-12T19:21:08.520Z,97583.09
2019-01-12T19:23:40.927Z,97580.62
2019-01-12T19:26:13.291Z,97570.19
2019-01-12T19:28:45.493Z,97564.66
2019-01-12T19:31:17.784Z,97567.33
2019-01-12T19:33:50.023Z,97577.27
2019-01-12T19:36:22.274Z,97576.87
2019-01-12T19:38:54.487Z,97572.66
2019-01-12T19:41:26.649Z,97559.15
2019-01-12T19:43:58.957Z,97569.03
2019-01-12T19:46:31.125Z,97555.05
2019-01-12T19:49:03.425Z,97556.52
2019-01-12T19:51:35.826Z,97564.10
2019-01-12T19:54:08.283Z,97558.78
2019-01-12T19:56:40.653Z,97560.20
2019-01-12T19:59:13.854Z,97557.67
2019-01-12T20:01:46.319Z,97547.64
2019-01-12T20:04:18.525Z,97552.59
2019-01-12T20:06:50.683Z,97552.13
2019-01-12T20:09:22.886Z,97546.09
2019-01-12T20:11:55.144Z,97542.52
2019-01-12T20:14:27.555Z,97552.86
2019-01-12T20:16:59.903Z,97559.85
2019-01-12T20:19:32.115Z,97547.31
2019-01-12T20:22:04.380Z,97545.63
2019-01-12T20:24:36.689Z,97548.09
2019-01-12T20:27:08.943Z,97542.02
2019-01-12T20:29:41.364Z,97549.72
2019-01-12T20:32:25.832Z,97543.97
2019-01-12T20:35:58.910Z,97536.83
2019-01-12T20:39:12.879Z,97542.09
2019-01-12T20:42:32.763Z,97538.34
2019-01-12T20:46:05.433Z,97536.98
2019-01-12T20:49:03.567Z,97528.56
2019-01-12T20:52:56.488Z,97530.23
2019-01-12T20:56:17.492Z,97519.92
2019-01-12T21:00:04.634Z,97507.88
2019-01-12T21:03:19.095Z,97494.67
2019-01-12T21:06:55.245Z,97488.56
2019-01-12T21:10:10.104Z,97490.23
2019-01-12T21:13:59.457Z,97480.72
2019-01-12T21:17:03.500Z,97475.04
2019-01-12T21:19:35.857Z,97470.34
2019-01-12T21:22:09.924Z,97461.75
2019-01-12T21:24:43.319Z,97466.77
2019-01-12T21:27:15.973Z,97470.17
2019-01-12T21:29:48.325Z,97468.18
2019-01-12T21:32:20.638Z,97461.95
2019-01-12T21:34:52.904Z,97464.75
2019-01-12T21:37:25.315Z,97467.24
2019-01-12T21:39:57.474Z,97460.84
2019-01-12T21:42:29.884Z,97463.14
2019-01-12T21:45:02.044Z,97462.00
2019-01-12T21:47:34.253Z,97460.11
2019-01-12T21:50:08.639Z,97458.91
2019-01-12T21:52:40.997Z,97465.98
2019-01-12T21:55:13.480Z,97455.71
2019-01-12T21:57:45.694Z,97458.16
2019-01-12T22:00:19.167Z,97462.16
2019-01-12T22:02:51.677Z,97453.86
2019-01-12T22:05:24.135Z,97452.17
2019-01-12T22:07:56.649Z,97451.53
2019-01-12T22:10:28.808Z,97453.22
2019-01-12T22:13:01.214Z,97446.02
2019-01-12T22:15:33.656Z,97442.02
2019-01-12T22:18:06.067Z,97441.91
2019-01-12T22:20:38.431Z,97438.20
2019-01-12T22:23:10.843Z,97427.67
2019-01-12T22:25:42.994Z,97434.38
2019-01-12T22:28:15.401Z,97437.22
2019-01-12T22:30:47.765Z,97439.13
2019-01-12T22:33:20.164Z,97424.94
2019-01-12T22:35:52.401Z,97425.02
2019-01-12T22:38:24.817Z,97419.91
2019-01-12T22:40:57.081Z,97419.96
2019-01-12T22:43:31.143Z,97410.66
2019-01-12T22:46:03.518Z,97409.16
2019-01-12T22:48:35.721Z,97397.26
2019-01-12T22:51:08.612Z,97397.87
2019-01-12T22:53:41.627Z,97397.61
2019-01-12T22:56:14.300Z,97398.44
2019-01-12T22:58:46.889Z,97398.50
2019-01-12T23:02:01.089Z,97400.31
2019-01-12T23:04:34.267Z,97400.13
2019-01-12T23:07:11.436Z,97393.07
2019-01-12T23:09:41.550Z,97392.34
2019-01-12T23:12:14.006Z,97396.31
2019-01-12T23:14:46.320Z,97391.92
2019-01-12T23:17:18.578Z,97395.83
2019-01-12T23:19:50.990Z,97393.07
2019-01-12T23:22:23.257Z,97391.61
2019-01-12T23:24:55.475Z,97393.06
2019-01-12T23:27:27.924Z,97388.43
2019-01-12T23:30:04.321Z,97391.70
2019-01-12T23:32:33.996Z,97387.95
2019-01-12T23:35:07.249Z,97381.45
2019-01-12T23:37:39.707Z,97387.31
2019-01-12T23:40:12.259Z,97385.25
2019-01-12T23:42:44.830Z,97378.61
2019-01-12T23:45:17.367Z,97387.45
2019-01-12T23:47:49.532Z,97377.66
2019-01-12T23:50:21.735Z,97382.36
2019-01-12T23:52:54.008Z,97386.53
2019-01-12T23:55:26.415Z,97384.78
2019-01-12T23:57:58.681Z,97378.13
